Wheatland, Iowa
Current Conditions -  °F | °C
As of 4:52 PM on Saturday 25 Oct 2014 (Local Time) from KDVN Reporting Station
Clear Clear  
Wind Chill: 70°   Ceiling: Unl
Heat Index: 70°   Visibility: 10mi
Dew Point: 31°   Wind: 13mph
Humidity: 24%   Direction: 300°WNW
Pressure: 30.01"   Gusts: NA
Location:  41.83°N, 90.84°W
Report Text: KDVN 252152Z AUTO 30011KT 10SM CLR 21/M01 A3001 RMK AO2 SLP160 T02111006 TSNO
Loading
Personal Weather Stations






























Interactive Weather Map
Tropical Storm Tracking
New forecast layout! Learn more

10-Day Weather Forecast

Advertisements
Track Severe Weather on mobile